sensor_id;sensor_type;location;lat;lon;timestamp;pressure;altitude;pressure_sealevel;temperature;humidity
24858;BME280;12935;50.782;6.074;2023-03-01T00:01:45;100731.91;;;0.11;100.00
24858;BME280;12935;50.782;6.074;2023-03-01T00:04:10;100732.34;;;-0.01;100.00
24858;BME280;12935;50.782;6.074;2023-03-01T00:06:36;100727.41;;;-0.12;100.00
24858;BME280;12935;50.782;6.074;2023-03-01T00:09:02;100726.53;;;-0.08;100.00
24858;BME280;12935;50.782;6.074;2023-03-01T00:11:30;100719.72;;;0.00;100.00
24858;BME280;12935;50.782;6.074;2023-03-01T00:13:58;100722.72;;;-0.20;100.00
24858;BME280;12935;50.782;6.074;2023-03-01T00:16:29;100721.41;;;-0.23;100.00
24858;BME280;12935;50.782;6.074;2023-03-01T00:18:56;100714.00;;;-0.31;100.00
24858;BME280;12935;50.782;6.074;2023-03-01T00:21:22;100715.47;;;-0.20;100.00
24858;BME280;12935;50.782;6.074;2023-03-01T00:23:48;100713.69;;;-0.11;100.00
24858;BME280;12935;50.782;6.074;2023-03-01T00:26:14;100722.19;;;-0.22;100.00
24858;BME280;12935;50.782;6.074;2023-03-01T00:28:40;100712.19;;;-0.17;100.00
24858;BME280;12935;50.782;6.074;2023-03-01T00:31:07;100721.97;;;-0.07;100.00
24858;BME280;12935;50.782;6.074;2023-03-01T00:33:33;100730.03;;;-0.07;100.00
24858;BME280;12935;50.782;6.074;2023-03-01T00:36:00;100725.16;;;-0.05;100.00
24858;BME280;12935;50.782;6.074;2023-03-01T00:38:25;100723.28;;;-0.23;100.00
24858;BME280;12935;50.782;6.074;2023-03-01T00:40:51;100732.63;;;-0.58;100.00
24858;BME280;12935;50.782;6.074;2023-03-01T00:43:18;100729.97;;;-0.40;100.00
24858;BME280;12935;50.782;6.074;2023-03-01T00:45:44;100727.72;;;-0.32;100.00
24858;BME280;12935;50.782;6.074;2023-03-01T00:48:09;100738.38;;;-0.46;100.00
24858;BME280;12935;50.782;6.074;2023-03-01T00:50:35;100731.34;;;-0.42;100.00
24858;BME280;12935;50.782;6.074;2023-03-01T00:53:00;100738.38;;;-0.46;100.00
24858;BME280;12935;50.782;6.074;2023-03-01T00:55:26;100726.63;;;-0.50;100.00
24858;BME280;12935;50.782;6.074;2023-03-01T00:57:54;100729.06;;;-0.73;100.00
24858;BME280;12935;50.782;6.074;2023-03-01T01:00:20;100736.50;;;-0.88;100.00
24858;BME280;12935;50.782;6.074;2023-03-01T01:02:46;100729.72;;;-0.81;100.00
24858;BME280;12935;50.782;6.074;2023-03-01T01:05:12;100729.31;;;-0.69;100.00
24858;BME280;12935;50.782;6.074;2023-03-01T01:07:38;100724.72;;;-0.68;100.00
24858;BME280;12935;50.782;6.074;2023-03-01T01:10:04;100730.47;;;-0.56;100.00
24858;BME280;12935;50.782;6.074;2023-03-01T01:12:30;100720.47;;;-0.51;100.00
24858;BME280;12935;50.782;6.074;2023-03-01T01:14:56;100716.63;;;-0.63;100.00
24858;BME280;12935;50.782;6.074;2023-03-01T01:17:22;100711.16;;;-0.58;100.00
24858;BME280;12935;50.782;6.074;2023-03-01T01:19:48;100705.22;;;-0.55;100.00
24858;BME280;12935;50.782;6.074;2023-03-01T01:22:13;100711.16;;;-0.58;100.00
24858;BME280;12935;50.782;6.074;2023-03-01T01:24:39;100712.69;;;-0.52;100.00
24858;BME280;12935;50.782;6.074;2023-03-01T01:27:05;100702.69;;;-0.65;100.00
24858;BME280;12935;50.782;6.074;2023-03-01T01:29:31;100702.09;;;-0.62;100.00
24858;BME280;12935;50.782;6.074;2023-03-01T01:31:56;100689.19;;;-0.60;100.00
24858;BME280;12935;50.782;6.074;2023-03-01T01:34:22;100691.94;;;-0.65;100.00
24858;BME280;12935;50.782;6.074;2023-03-01T01:36:52;100689.31;;;-0.71;100.00
24858;BME280;12935;50.782;6.074;2023-03-01T01:39:22;100689.31;;;-0.71;100.00
24858;BME280;12935;50.782;6.074;2023-03-01T01:41:48;100684.59;;;-0.60;100.00
24858;BME280;12935;50.782;6.074;2023-03-01T01:44:22;100682.88;;;-0.69;100.00
24858;BME280;12935;50.782;6.074;2023-03-01T01:54:45;100677.63;;;-0.61;100.00
24858;BME280;12935;50.782;6.074;2023-03-01T01:57:16;100660.75;;;-0.61;100.00
24858;BME280;12935;50.782;6.074;2023-03-01T01:59:50;100662.84;;;-0.58;100.00
24858;BME280;12935;50.782;6.074;2023-03-01T02:02:16;100659.88;;;-0.57;100.00
24858;BME280;12935;50.782;6.074;2023-03-01T02:04:42;100659.28;;;-0.73;100.00
24858;BME280;12935;50.782;6.074;2023-03-01T02:07:15;100655.44;;;-0.85;100.00
24858;BME280;12935;50.782;6.074;2023-03-01T02:09:45;100644.78;;;-0.90;100.00
24858;BME280;12935;50.782;6.074;2023-03-01T02:12:13;100641.97;;;-0.80;100.00
24858;BME280;12935;50.782;6.074;2023-03-01T02:14:39;100638.13;;;-0.74;100.00
24858;BME280;12935;50.782;6.074;2023-03-01T02:17:04;100637.63;;;-0.95;100.00
24858;BME280;12935;50.782;6.074;2023-03-01T02:19:44;100638.25;;;-1.03;100.00
24858;BME280;12935;50.782;6.074;2023-03-01T02:22:32;100636.50;;;-0.94;100.00
24858;BME280;12935;50.782;6.074;2023-03-01T02:27:49;100626.28;;;-0.73;100.00
24858;BME280;12935;50.782;6.074;2023-03-01T02:30:20;100626.69;;;-0.80;100.00
24858;BME280;12935;50.782;6.074;2023-03-01T02:32:47;100619.84;;;-0.91;100.00
24858;BME280;12935;50.782;6.074;2023-03-01T02:35:15;100622.09;;;-0.98;100.00
24858;BME280;12935;50.782;6.074;2023-03-01T02:37:42;100624.50;;;-0.96;100.00
24858;BME280;12935;50.782;6.074;2023-03-01T02:40:36;100628.63;;;-0.85;100.00
24858;BME280;12935;50.782;6.074;2023-03-01T02:43:04;100629.66;;;-0.81;100.00
24858;BME280;12935;50.782;6.074;2023-03-01T02:45:33;100614.63;;;-1.01;100.00
24858;BME280;12935;50.782;6.074;2023-03-01T02:47:58;100616.56;;;-1.07;100.00
24858;BME280;12935;50.782;6.074;2023-03-01T02:53:02;100616.94;;;-1.13;100.00
24858;BME280;12935;50.782;6.074;2023-03-01T02:55:31;100626.16;;;-1.24;100.00
24858;BME280;12935;50.782;6.074;2023-03-01T02:57:56;100626.22;;;-1.48;100.00
24858;BME280;12935;50.782;6.074;2023-03-01T03:00:33;100631.56;;;-1.48;100.00
24858;BME280;12935;50.782;6.074;2023-03-01T03:03:00;100623.47;;;-1.43;100.00
24858;BME280;12935;50.782;6.074;2023-03-01T03:05:28;100622.94;;;-1.69;100.00
24858;BME280;12935;50.782;6.074;2023-03-01T03:07:54;100629.81;;;-1.87;100.00
24858;BME280;12935;50.782;6.074;2023-03-01T03:10:23;100630.69;;;-1.91;100.00
24858;BME280;12935;50.782;6.074;2023-03-01T03:12:55;100629.75;;;-2.05;100.00
24858;BME280;12935;50.782;6.074;2023-03-01T03:15:24;100626.84;;;-2.09;100.00
24858;BME280;12935;50.782;6.074;2023-03-01T03:17:52;100624.19;;;-2.14;100.00
24858;BME280;12935;50.782;6.074;2023-03-01T03:20:20;100625.81;;;-2.18;100.00
24858;BME280;12935;50.782;6.074;2023-03-01T03:22:48;100629.38;;;-1.94;100.00
24858;BME280;12935;50.782;6.074;2023-03-01T03:25:15;100627.09;;;-2.10;100.00
24858;BME280;12935;50.782;6.074;2023-03-01T03:27:42;100624.06;;;-2.33;100.00
24858;BME280;12935;50.782;6.074;2023-03-01T03:30:11;100623.06;;;-2.37;100.00
24858;BME280;12935;50.782;6.074;2023-03-01T03:32:41;100625.50;;;-2.40;100.00
24858;BME280;12935;50.782;6.074;2023-03-01T03:35:09;100625.41;;;-2.30;100.00
24858;BME280;12935;50.782;6.074;2023-03-01T03:37:39;100618.19;;;-2.35;100.00
24858;BME280;12935;50.782;6.074;2023-03-01T03:40:25;100624.19;;;-2.48;100.00
24858;BME280;12935;50.782;6.074;2023-03-01T03:42:50;100612.50;;;-2.57;100.00
24858;BME280;12935;50.782;6.074;2023-03-01T03:45:17;100606.47;;;-2.39;100.00
24858;BME280;12935;50.782;6.074;2023-03-01T03:47:43;100606.91;;;-2.27;100.00
24858;BME280;12935;50.782;6.074;2023-03-01T03:50:13;100603.97;;;-2.30;100.00
24858;BME280;12935;50.782;6.074;2023-03-01T03:52:39;100599.28;;;-2.43;100.00
24858;BME280;12935;50.782;6.074;2023-03-01T03:55:06;100597.38;;;-2.38;100.00
24858;BME280;12935;50.782;6.074;2023-03-01T03:57:37;100596.41;;;-2.52;100.00
24858;BME280;12935;50.782;6.074;2023-03-01T04:00:03;100594.28;;;-2.55;100.00
24858;BME280;12935;50.782;6.074;2023-03-01T04:02:42;100600.50;;;-2.31;100.00
24858;BME280;12935;50.782;6.074;2023-03-01T04:05:10;100594.78;;;-2.19;100.00
24858;BME280;12935;50.782;6.074;2023-03-01T04:07:36;100591.41;;;-2.30;100.00
24858;BME280;12935;50.782;6.074;2023-03-01T04:10:07;100596.97;;;-2.21;100.00
24858;BME280;12935;50.782;6.074;2023-03-01T04:12:34;100595.03;;;-2.16;100.00
24858;BME280;12935;50.782;6.074;2023-03-01T04:15:05;100593.63;;;-2.08;100.00
24858;BME280;12935;50.782;6.074;2023-03-01T04:17:41;100598.72;;;-2.12;100.00
24858;BME280;12935;50.782;6.074;2023-03-01T04:20:13;100587.47;;;-2.08;100.00
24858;BME280;12935;50.782;6.074;2023-03-01T04:22:40;100586.84;;;-2.00;100.00
24858;BME280;12935;50.782;6.074;2023-03-01T04:25:06;100583.63;;;-2.02;100.00
24858;BME280;12935;50.782;6.074;2023-03-01T04:27:36;100583.31;;;-1.96;100.00
24858;BME280;12935;50.782;6.074;2023-03-01T04:30:03;100582.91;;;-2.08;100.00
24858;BME280;12935;50.782;6.074;2023-03-01T04:32:28;100572.03;;;-1.93;100.00
24858;BME280;12935;50.782;6.074;2023-03-01T04:34:54;100572.19;;;-1.84;100.00
24858;BME280;12935;50.782;6.074;2023-03-01T04:37:20;100567.13;;;-1.86;100.00
24858;BME280;12935;50.782;6.074;2023-03-01T04:39:45;100566.41;;;-1.91;100.00
24858;BME280;12935;50.782;6.074;2023-03-01T04:42:15;100565.75;;;-2.07;100.00
24858;BME280;12935;50.782;6.074;2023-03-01T04:44:42;100556.13;;;-2.08;100.00
24858;BME280;12935;50.782;6.074;2023-03-01T04:47:08;100563.81;;;-2.01;100.00
24858;BME280;12935;50.782;6.074;2023-03-01T04:49:33;100569.81;;;-2.09;100.00
24858;BME280;12935;50.782;6.074;2023-03-01T04:51:59;100551.25;;;-2.30;100.00
24858;BME280;12935;50.782;6.074;2023-03-01T04:54:34;100566.72;;;-2.22;100.00
24858;BME280;12935;50.782;6.074;2023-03-01T04:57:01;100567.25;;;-1.96;100.00
24858;BME280;12935;50.782;6.074;2023-03-01T04:59:27;100569.00;;;-1.86;100.00
24858;BME280;12935;50.782;6.074;2023-03-01T05:01:54;100561.72;;;-1.81;100.00
24858;BME280;12935;50.782;6.074;2023-03-01T05:04:24;100557.66;;;-2.02;100.00
24858;BME280;12935;50.782;6.074;2023-03-01T05:06:50;100562.38;;;-2.18;100.00
24858;BME280;12935;50.782;6.074;2023-03-01T05:09:15;100561.19;;;-2.35;100.00
24858;BME280;12935;50.782;6.074;2023-03-01T05:11:41;100551.09;;;-2.15;100.00
24858;BME280;12935;50.782;6.074;2023-03-01T05:14:08;100561.81;;;-2.15;100.00
24858;BME280;12935;50.782;6.074;2023-03-01T05:16:35;100557.16;;;-2.04;100.00
24858;BME280;12935;50.782;6.074;2023-03-01T05:19:01;100555.78;;;-2.01;100.00
24858;BME280;12935;50.782;6.074;2023-03-01T05:21:37;100545.34;;;-2.03;100.00
24858;BME280;12935;50.782;6.074;2023-03-01T05:24:22;100545.16;;;-2.06;100.00
24858;BME280;12935;50.782;6.074;2023-03-01T05:26:48;100554.06;;;-2.16;100.00
24858;BME280;12935;50.782;6.074;2023-03-01T05:29:13;100552.88;;;-2.34;100.00
24858;BME280;12935;50.782;6.074;2023-03-01T05:31:38;100551.06;;;-2.09;100.00
24858;BME280;12935;50.782;6.074;2023-03-01T05:34:04;100558.13;;;-1.95;100.00
24858;BME280;12935;50.782;6.074;2023-03-01T05:36:29;100549.97;;;-2.08;100.00
24858;BME280;12935;50.782;6.074;2023-03-01T05:38:55;100551.06;;;-2.09;100.00
24858;BME280;12935;50.782;6.074;2023-03-01T05:41:20;100540.50;;;-2.25;100.00
24858;BME280;12935;50.782;6.074;2023-03-01T05:43:46;100543.25;;;-2.06;100.00
24858;BME280;12935;50.782;6.074;2023-03-01T05:46:14;100544.00;;;-2.00;100.00
24858;BME280;12935;50.782;6.074;2023-03-01T05:48:41;100549.66;;;-2.31;100.00
24858;BME280;12935;50.782;6.074;2023-03-01T05:51:06;100553.47;;;-2.37;100.00
24858;BME280;12935;50.782;6.074;2023-03-01T05:53:32;100552.88;;;-2.34;100.00
24858;BME280;12935;50.782;6.074;2023-03-01T05:55:58;100555.81;;;-2.30;100.00
24858;BME280;12935;50.782;6.074;2023-03-01T05:58:23;100553.78;;;-2.43;100.00
24858;BME280;12935;50.782;6.074;2023-03-01T06:00:49;100557.44;;;-2.34;100.00
24858;BME280;12935;50.782;6.074;2023-03-01T06:03:16;100561.41;;;-2.27;100.00
24858;BME280;12935;50.782;6.074;2023-03-01T06:05:43;100564.22;;;-2.42;100.00
24858;BME280;12935;50.782;6.074;2023-03-01T06:08:12;100563.56;;;-2.29;100.00
24858;BME280;12935;50.782;6.074;2023-03-01T06:10:38;100560.69;;;-2.08;100.00
24858;BME280;12935;50.782;6.074;2023-03-01T06:13:04;100556.06;;;-2.03;100.00
24858;BME280;12935;50.782;6.074;2023-03-01T06:15:30;100557.09;;;-1.99;100.00
24858;BME280;12935;50.782;6.074;2023-03-01T06:17:56;100558.66;;;-1.93;100.00
24858;BME280;12935;50.782;6.074;2023-03-01T06:20:27;100539.53;;;-1.86;100.00
24858;BME280;12935;50.782;6.074;2023-03-01T06:22:53;100545.81;;;-1.72;100.00
24858;BME280;12935;50.782;6.074;2023-03-01T06:25:21;100545.47;;;-1.65;100.00
24858;BME280;12935;50.782;6.074;2023-03-01T06:27:48;100546.50;;;-1.61;100.00
24858;BME280;12935;50.782;6.074;2023-03-01T06:30:15;100546.13;;;-1.55;100.00
24858;BME280;12935;50.782;6.074;2023-03-01T06:32:42;100543.13;;;-1.48;100.00
24858;BME280;12935;50.782;6.074;2023-03-01T06:35:10;100539.06;;;-1.46;100.00
24858;BME280;12935;50.782;6.074;2023-03-01T06:37:36;100547.09;;;-1.46;100.00
24858;BME280;12935;50.782;6.074;2023-03-01T06:40:04;100543.06;;;-1.43;100.00
24858;BME280;12935;50.782;6.074;2023-03-01T06:42:37;100547.03;;;-1.41;100.00
24858;BME280;12935;50.782;6.074;2023-03-01T06:45:04;100545.13;;;-1.40;100.00
24858;BME280;12935;50.782;6.074;2023-03-01T06:47:30;100538.97;;;-1.41;100.00
24858;BME280;12935;50.782;6.074;2023-03-01T06:49:56;100538.41;;;-1.37;100.00
24858;BME280;12935;50.782;6.074;2023-03-01T06:52:21;100540.56;;;-1.39;100.00
24858;BME280;12935;50.782;6.074;2023-03-01T06:54:47;100536.03;;;-1.39;100.00
24858;BME280;12935;50.782;6.074;2023-03-01T06:57:12;100545.75;;;-1.43;100.00
24858;BME280;12935;50.782;6.074;2023-03-01T06:59:38;100540.13;;;-1.65;100.00
24858;BME280;12935;50.782;6.074;2023-03-01T07:02:09;100535.31;;;-1.68;100.00
24858;BME280;12935;50.782;6.074;2023-03-01T07:04:35;100539.69;;;-1.54;100.00
24858;BME280;12935;50.782;6.074;2023-03-01T07:07:01;100541.56;;;-1.54;100.00
24858;BME280;12935;50.782;6.074;2023-03-01T07:09:26;100541.00;;;-1.51;100.00
24858;BME280;12935;50.782;6.074;2023-03-01T07:11:52;100546.41;;;-1.32;100.00
24858;BME280;12935;50.782;6.074;2023-03-01T07:14:17;100543.72;;;-1.14;100.00
24858;BME280;12935;50.782;6.074;2023-03-01T07:16:42;100538.44;;;-1.00;100.00
24858;BME280;12935;50.782;6.074;2023-03-01T07:19:08;100544.66;;;-0.86;100.00
24858;BME280;12935;50.782;6.074;2023-03-01T07:21:33;100542.88;;;-0.77;100.00
24858;BME280;12935;50.782;6.074;2023-03-01T07:23:59;100542.25;;;-0.68;100.00
24858;BME280;12935;50.782;6.074;2023-03-01T07:26:24;100543.16;;;-0.59;100.00
24858;BME280;12935;50.782;6.074;2023-03-01T07:28:50;100532.34;;;-0.54;100.00
24858;BME280;12935;50.782;6.074;2023-03-01T07:31:15;100535.63;;;-0.44;100.00
24858;BME280;12935;50.782;6.074;2023-03-01T07:33:41;100530.13;;;-0.33;100.00
24858;BME280;12935;50.782;6.074;2023-03-01T07:36:07;100535.88;;;-0.26;100.00
24858;BME280;12935;50.782;6.074;2023-03-01T07:38:33;100533.13;;;-0.21;100.00
24858;BME280;12935;50.782;6.074;2023-03-01T07:41:00;100532.69;;;-0.15;100.00
24858;BME280;12935;50.782;6.074;2023-03-01T07:43:29;100535.28;;;-0.69;100.00
24858;BME280;12935;50.782;6.074;2023-03-01T07:45:58;100527.19;;;-1.02;100.00
24858;BME280;12935;50.782;6.074;2023-03-01T07:48:24;100520.59;;;-1.10;100.00
24858;BME280;12935;50.782;6.074;2023-03-01T07:50:49;100532.63;;;-0.88;100.00
24858;BME280;12935;50.782;6.074;2023-03-01T07:53:18;100531.22;;;-0.67;100.00
24858;BME280;12935;50.782;6.074;2023-03-01T07:55:46;100534.84;;;-0.77;100.00
24858;BME280;12935;50.782;6.074;2023-03-01T07:58:12;100539.88;;;-0.56;100.00
24858;BME280;12935;50.782;6.074;2023-03-01T08:00:37;100530.50;;;-0.40;100.00
24858;BME280;12935;50.782;6.074;2023-03-01T08:03:03;100533.16;;;-0.40;100.00
24858;BME280;12935;50.782;6.074;2023-03-01T08:05:29;100528.25;;;-0.19;100.00
24858;BME280;12935;50.782;6.074;2023-03-01T08:07:55;100527.56;;;0.03;100.00
24858;BME280;12935;50.782;6.074;2023-03-01T08:10:20;100531.25;;;0.20;100.00
24858;BME280;12935;50.782;6.074;2023-03-01T08:12:46;100514.31;;;0.33;100.00
24858;BME280;12935;50.782;6.074;2023-03-01T08:15:11;100523.09;;;0.25;100.00
24858;BME280;12935;50.782;6.074;2023-03-01T08:17:37;100501.47;;;0.17;100.00
24858;BME280;12935;50.782;6.074;2023-03-01T08:20:03;100512.72;;;0.32;100.00
24858;BME280;12935;50.782;6.074;2023-03-01T08:22:31;100511.31;;;0.35;100.00
24858;BME280;12935;50.782;6.074;2023-03-01T08:24:56;100513.91;;;0.40;100.00
24858;BME280;12935;50.782;6.074;2023-03-01T08:27:22;100507.06;;;0.20;100.00
24858;BME280;12935;50.782;6.074;2023-03-01T08:29:47;100506.97;;;0.25;100.00
24858;BME280;12935;50.782;6.074;2023-03-01T08:32:13;100502.56;;;0.43;100.00
24858;BME280;12935;50.782;6.074;2023-03-01T08:34:39;100503.56;;;0.33;100.00
24858;BME280;12935;50.782;6.074;2023-03-01T08:37:05;100509.53;;;0.44;100.00
24858;BME280;12935;50.782;6.074;2023-03-01T08:39:31;100513.38;;;0.52;100.00
24858;BME280;12935;50.782;6.074;2023-03-01T08:41:57;100510.06;;;0.68;100.00
24858;BME280;12935;50.782;6.074;2023-03-01T08:44:22;100519.41;;;0.85;100.00
24858;BME280;12935;50.782;6.074;2023-03-01T08:46:48;100517.66;;;1.02;100.00
24858;BME280;12935;50.782;6.074;2023-03-01T08:49:19;100517.88;;;1.15;100.00
24858;BME280;12935;50.782;6.074;2023-03-01T08:51:46;100512.44;;;1.28;100.00
24858;BME280;12935;50.782;6.074;2023-03-01T08:54:15;100515.41;;;1.40;100.00
24858;BME280;12935;50.782;6.074;2023-03-01T08:56:42;100511.63;;;1.50;99.83
24858;BME280;12935;50.782;6.074;2023-03-01T08:59:09;100514.84;;;1.61;98.99
24858;BME280;12935;50.782;6.074;2023-03-01T09:01:34;100504.63;;;1.71;97.20
24858;BME280;12935;50.782;6.074;2023-03-01T09:04:01;100507.34;;;1.80;97.13
24858;BME280;12935;50.782;6.074;2023-03-01T09:06:30;100494.38;;;1.82;96.32
24858;BME280;12935;50.782;6.074;2023-03-01T09:08:56;100502.97;;;1.93;96.68
24858;BME280;12935;50.782;6.074;2023-03-01T09:11:22;100492.00;;;1.89;96.15
24858;BME280;12935;50.782;6.074;2023-03-01T09:13:51;100486.31;;;1.91;96.76
24858;BME280;12935;50.782;6.074;2023-03-01T09:16:19;100490.47;;;2.05;96.58
24858;BME280;12935;50.782;6.074;2023-03-01T09:18:45;100488.94;;;2.22;95.49
24858;BME280;12935;50.782;6.074;2023-03-01T09:21:15;100486.28;;;2.30;93.74
24858;BME280;12935;50.782;6.074;2023-03-01T09:23:43;100491.84;;;2.42;91.97
24858;BME280;12935;50.782;6.074;2023-03-01T09:26:12;100488.22;;;2.47;90.31
24858;BME280;12935;50.782;6.074;2023-03-01T09:28:38;100496.31;;;2.56;89.13
24858;BME280;12935;50.782;6.074;2023-03-01T09:31:05;100488.41;;;2.59;87.85
24858;BME280;12935;50.782;6.074;2023-03-01T09:33:32;100490.31;;;2.67;87.51
24858;BME280;12935;50.782;6.074;2023-03-01T09:36:01;100487.91;;;2.57;86.08
24858;BME280;12935;50.782;6.074;2023-03-01T09:38:28;100494.44;;;2.65;86.82
24858;BME280;12935;50.782;6.074;2023-03-01T09:40:54;100495.41;;;2.77;86.17
24858;BME280;12935;50.782;6.074;2023-03-01T09:46:09;100488.56;;;3.06;83.24
24858;BME280;12935;50.782;6.074;2023-03-01T09:48:46;100486.28;;;3.34;83.35
24858;BME280;12935;50.782;6.074;2023-03-01T09:51:32;100485.94;;;3.61;81.42
24858;BME280;12935;50.782;6.074;2023-03-01T09:54:01;100482.19;;;3.83;79.74
24858;BME280;12935;50.782;6.074;2023-03-01T09:56:53;100490.53;;;4.07;78.23
24858;BME280;12935;50.782;6.074;2023-03-01T09:59:39;100484.81;;;4.30;76.56
24858;BME280;12935;50.782;6.074;2023-03-01T10:04:50;100482.94;;;4.51;74.85
24858;BME280;12935;50.782;6.074;2023-03-01T10:07:52;100470.00;;;4.77;72.92
24858;BME280;12935;50.782;6.074;2023-03-01T10:12:56;100480.75;;;5.07;70.12
24858;BME280;12935;50.782;6.074;2023-03-01T10:15:47;100474.25;;;5.20;68.20
24858;BME280;12935;50.782;6.074;2023-03-01T10:18:19;100468.63;;;5.25;68.58
24858;BME280;12935;50.782;6.074;2023-03-01T10:20:55;100464.22;;;5.20;68.12
24858;BME280;12935;50.782;6.074;2023-03-01T10:23:23;100462.72;;;5.44;67.86
24858;BME280;12935;50.782;6.074;2023-03-01T10:25:56;100467.72;;;5.66;65.93
24858;BME280;12935;50.782;6.074;2023-03-01T10:31:36;100466.72;;;5.83;63.38
24858;BME280;12935;50.782;6.074;2023-03-01T10:34:28;100453.78;;;6.13;62.36
24858;BME280;12935;50.782;6.074;2023-03-01T10:37:01;100454.31;;;6.43;61.11
24858;BME280;12935;50.782;6.074;2023-03-01T10:39:27;100449.81;;;6.62;59.76
24858;BME280;12935;50.782;6.074;2023-03-01T10:44:42;100442.16;;;7.20;58.04
24858;BME280;12935;50.782;6.074;2023-03-01T10:47:21;100443.41;;;7.38;57.20
24858;BME280;12935;50.782;6.074;2023-03-01T10:49:54;100443.34;;;7.07;57.01
24858;BME280;12935;50.782;6.074;2023-03-01T10:52:27;100443.50;;;6.98;57.10
24858;BME280;12935;50.782;6.074;2023-03-01T10:54:56;100423.63;;;6.82;57.09
24858;BME280;12935;50.782;6.074;2023-03-01T10:57:35;100425.50;;;6.94;57.22
24858;BME280;12935;50.782;6.074;2023-03-01T11:00:23;100427.47;;;7.09;57.59
24858;BME280;12935;50.782;6.074;2023-03-01T11:05:25;100421.94;;;7.65;55.30
24858;BME280;12935;50.782;6.074;2023-03-01T11:07:56;100423.63;;;7.69;54.61
24858;BME280;12935;50.782;6.074;2023-03-01T11:10:24;100412.16;;;8.11;54.36
24858;BME280;12935;50.782;6.074;2023-03-01T11:12:52;100417.63;;;8.46;52.84
24858;BME280;12935;50.782;6.074;2023-03-01T11:15:27;100411.63;;;8.95;51.37
24858;BME280;12935;50.782;6.074;2023-03-01T11:17:54;100411.84;;;9.28;50.98
24858;BME280;12935;50.782;6.074;2023-03-01T11:20:29;100415.53;;;9.62;48.77
24858;BME280;12935;50.782;6.074;2023-03-01T11:23:10;100407.56;;;9.99;46.97
24858;BME280;12935;50.782;6.074;2023-03-01T11:25:39;100403.63;;;10.23;46.23
24858;BME280;12935;50.782;6.074;2023-03-01T11:28:09;100399.22;;;10.15;45.36
24858;BME280;12935;50.782;6.074;2023-03-01T11:36:02;100374.88;;;10.63;44.49
24858;BME280;12935;50.782;6.074;2023-03-01T11:38:35;100378.56;;;10.77;45.11
24858;BME280;12935;50.782;6.074;2023-03-01T11:41:10;100379.38;;;11.18;42.99
24858;BME280;12935;50.782;6.074;2023-03-01T11:46:29;100376.28;;;11.60;41.59
24858;BME280;12935;50.782;6.074;2023-03-01T11:55:25;100378.56;;;11.55;39.76
24858;BME280;12935;50.782;6.074;2023-03-01T11:58:23;100378.22;;;11.19;40.95
24858;BME280;12935;50.782;6.074;2023-03-01T12:01:02;100376.75;;;11.73;40.93
24858;BME280;12935;50.782;6.074;2023-03-01T12:03:44;100361.16;;;12.39;39.61
24858;BME280;12935;50.782;6.074;2023-03-01T12:06:47;100360.28;;;12.21;38.77
24858;BME280;12935;50.782;6.074;2023-03-01T12:17:32;100347.25;;;13.01;37.88
24858;BME280;12935;50.782;6.074;2023-03-01T12:20:26;100324.88;;;12.85;37.38
24858;BME280;12935;50.782;6.074;2023-03-01T12:34:34;100317.75;;;14.26;35.98
24858;BME280;12935;50.782;6.074;2023-03-01T12:37:21;100333.53;;;13.08;36.71
24858;BME280;12935;50.782;6.074;2023-03-01T12:42:54;100324.09;;;11.90;38.96
24858;BME280;12935;50.782;6.074;2023-03-01T12:45:46;100315.22;;;11.56;39.58
24858;BME280;12935;50.782;6.074;2023-03-01T12:51:09;100318.00;;;12.22;39.62
24858;BME280;12935;50.782;6.074;2023-03-01T12:53:41;100328.09;;;13.33;37.41
24858;BME280;12935;50.782;6.074;2023-03-01T12:56:11;100305.75;;;13.31;37.32
24858;BME280;12935;50.782;6.074;2023-03-01T12:58:56;100298.22;;;13.88;36.36
24858;BME280;12935;50.782;6.074;2023-03-01T13:01:49;100294.47;;;14.55;34.92
24858;BME280;12935;50.782;6.074;2023-03-01T13:07:34;100297.25;;;12.21;37.07
24858;BME280;12935;50.782;6.074;2023-03-01T13:10:15;100289.66;;;13.19;35.87
24858;BME280;12935;50.782;6.074;2023-03-01T13:18:00;100274.13;;;12.11;37.46
24858;BME280;12935;50.782;6.074;2023-03-01T13:20:48;100281.31;;;11.20;39.35
24858;BME280;12935;50.782;6.074;2023-03-01T13:28:46;100271.72;;;15.06;34.85
24858;BME280;12935;50.782;6.074;2023-03-01T13:33:49;100279.00;;;14.79;34.73
24858;BME280;12935;50.782;6.074;2023-03-01T13:38:59;100278.03;;;16.27;32.90
24858;BME280;12935;50.782;6.074;2023-03-01T13:44:37;100259.34;;;20.32;27.62
24858;BME280;12935;50.782;6.074;2023-03-01T13:49:58;100265.75;;;25.02;22.31
24858;BME280;12935;50.782;6.074;2023-03-01T13:52:39;100271.44;;;25.65;21.12
24858;BME280;12935;50.782;6.074;2023-03-01T13:57:54;100260.19;;;28.76;18.51
24858;BME280;12935;50.782;6.074;2023-03-01T14:00:38;100262.56;;;29.26;17.43
24858;BME280;12935;50.782;6.074;2023-03-01T14:05:43;100259.31;;;30.65;16.31
24858;BME280;12935;50.782;6.074;2023-03-01T14:08:21;100251.97;;;31.36;16.26
24858;BME280;12935;50.782;6.074;2023-03-01T14:16:36;100236.56;;;28.31;16.22
24858;BME280;12935;50.782;6.074;2023-03-01T14:21:45;100239.25;;;30.96;15.17
24858;BME280;12935;50.782;6.074;2023-03-01T14:24:20;100232.84;;;25.98;18.51
24858;BME280;12935;50.782;6.074;2023-03-01T14:26:47;100230.25;;;28.42;17.54
24858;BME280;12935;50.782;6.074;2023-03-01T14:29:35;100215.97;;;30.01;16.36
24858;BME280;12935;50.782;6.074;2023-03-01T14:32:20;100224.66;;;28.79;16.24
24858;BME280;12935;50.782;6.074;2023-03-01T14:34:48;100219.81;;;28.79;16.76
24858;BME280;12935;50.782;6.074;2023-03-01T14:37:34;100217.84;;;28.96;15.80
24858;BME280;12935;50.782;6.074;2023-03-01T14:40:02;100210.41;;;25.06;18.53
24858;BME280;12935;50.782;6.074;2023-03-01T14:42:35;100205.50;;;17.30;24.35
24858;BME280;12935;50.782;6.074;2023-03-01T14:45:02;100210.00;;;15.04;28.00
24858;BME280;12935;50.782;6.074;2023-03-01T14:50:05;100200.13;;;12.04;32.29